createdAt,value
2022-10-05T00:00:13.361Z,14.80
2022-10-05T00:00:25.007Z,14.80
2022-10-05T00:00:36.784Z,14.80
2022-10-05T00:00:56.080Z,14.80
2022-10-05T00:01:31.182Z,14.80
2022-10-05T00:01:43.144Z,14.90
2022-10-05T00:01:55.038Z,14.80
2022-10-05T00:02:15.419Z,14.80
2022-10-05T00:02:27.093Z,14.80
2022-10-05T00:02:38.777Z,14.80
2022-10-05T00:02:52.247Z,14.80
2022-10-05T00:03:09.693Z,14.80
2022-10-05T00:03:22.600Z,14.80
2022-10-05T00:03:37.261Z,14.80
2022-10-05T00:03:49.179Z,14.80
2022-10-05T00:04:18.531Z,14.80
2022-10-05T00:04:30.408Z,14.80
2022-10-05T00:04:42.077Z,14.80
2022-10-05T00:04:55.534Z,14.80
2022-10-05T00:05:33.117Z,14.80
2022-10-05T00:05:45.249Z,14.80
2022-10-05T00:05:57.029Z,14.80
2022-10-05T00:06:11.658Z,14.80
2022-10-05T00:06:23.427Z,14.80
2022-10-05T00:06:35.056Z,14.80
2022-10-05T00:07:12.770Z,14.80
2022-10-05T00:07:24.632Z,14.80
2022-10-05T00:07:36.332Z,14.80
2022-10-05T00:07:48.069Z,14.80
2022-10-05T00:08:13.161Z,14.80
2022-10-05T00:08:25.597Z,14.80
2022-10-05T00:08:37.390Z,14.80
2022-10-05T00:08:49.453Z,14.80
2022-10-05T00:09:01.360Z,14.80
2022-10-05T00:09:15.821Z,14.80
2022-10-05T00:09:30.189Z,14.80
2022-10-05T00:09:42.210Z,14.80
2022-10-05T00:09:57.911Z,14.80
2022-10-05T00:10:12.786Z,14.80
2022-10-05T00:10:24.697Z,14.80
2022-10-05T00:10:36.430Z,14.80
2022-10-05T00:10:48.265Z,14.80
2022-10-05T00:10:59.926Z,14.80
2022-10-05T00:11:13.217Z,14.80
2022-10-05T00:11:25.083Z,14.80
2022-10-05T00:11:37.005Z,14.80
2022-10-05T00:11:49.229Z,14.90
2022-10-05T00:12:19.354Z,14.90
2022-10-05T00:12:31.029Z,14.90
2022-10-05T00:12:44.832Z,14.90
2022-10-05T00:12:56.673Z,14.90
2022-10-05T00:13:37.429Z,14.90
2022-10-05T00:13:49.868Z,14.90
2022-10-05T00:14:01.864Z,14.90
2022-10-05T00:14:29.192Z,14.90
2022-10-05T00:14:40.907Z,14.90
2022-10-05T00:14:55.528Z,14.90
2022-10-05T00:15:10.769Z,14.90
2022-10-05T00:15:22.506Z,14.90
2022-10-05T00:15:34.344Z,15.00
2022-10-05T00:15:46.169Z,15.00
2022-10-05T00:16:19.183Z,15.00
2022-10-05T00:16:31.103Z,14.90
2022-10-05T00:16:42.961Z,14.90
2022-10-05T00:16:55.849Z,14.90
2022-10-05T00:17:26.161Z,14.90
2022-10-05T00:17:37.864Z,14.90
2022-10-05T00:17:49.596Z,14.90
2022-10-05T00:18:02.780Z,14.90
2022-10-05T00:18:15.950Z,14.90
2022-10-05T00:18:27.621Z,14.90
2022-10-05T00:18:39.641Z,14.90
2022-10-05T00:18:52.301Z,14.90
2022-10-05T00:19:06.242Z,14.90
2022-10-05T00:19:38.459Z,14.90
2022-10-05T00:19:54.098Z,14.90
2022-10-05T00:20:25.763Z,14.90
2022-10-05T00:20:37.390Z,14.90
2022-10-05T00:20:49.332Z,14.90
2022-10-05T00:21:01.162Z,14.90
2022-10-05T00:21:23.485Z,14.90
2022-10-05T00:21:35.368Z,14.90
2022-10-05T00:21:47.281Z,14.90
2022-10-05T00:22:16.767Z,14.90
2022-10-05T00:22:32.657Z,14.90
2022-10-05T00:22:44.321Z,14.90
2022-10-05T00:22:57.477Z,14.90
2022-10-05T00:23:23.236Z,14.90
2022-10-05T00:23:34.922Z,14.90
2022-10-05T00:23:46.685Z,14.80
2022-10-05T00:23:58.357Z,14.80
2022-10-05T00:24:10.448Z,14.80
2022-10-05T00:24:22.292Z,14.80
2022-10-05T00:24:33.917Z,14.80
2022-10-05T00:24:46.294Z,14.80
2022-10-05T00:24:59.071Z,14.80
2022-10-05T00:25:16.963Z,14.80
2022-10-05T00:25:28.657Z,14.80
2022-10-05T00:25:40.296Z,14.80
2022-10-05T00:25:52.170Z,14.80
2022-10-05T00:26:14.293Z,14.80
2022-10-05T00:26:27.151Z,14.80
2022-10-05T00:26:38.843Z,14.80
2022-10-05T00:26:55.394Z,14.90
2022-10-05T00:27:36.093Z,14.80
2022-10-05T00:27:58.092Z,14.80
2022-10-05T00:28:21.253Z,14.90
2022-10-05T00:28:33.122Z,14.80
2022-10-05T00:28:44.791Z,14.80
2022-10-05T00:28:56.568Z,14.80
2022-10-05T00:29:22.597Z,14.80
2022-10-05T00:29:34.223Z,14.80
2022-10-05T00:29:50.105Z,14.80
2022-10-05T00:30:11.245Z,14.80
2022-10-05T00:30:23.383Z,14.80
2022-10-05T00:30:35.064Z,14.80
2022-10-05T00:30:46.806Z,14.80
2022-10-05T00:30:58.965Z,14.80
2022-10-05T00:31:15.000Z,14.80
2022-10-05T00:31:30.751Z,14.80
2022-10-05T00:31:42.474Z,14.80
2022-10-05T00:31:54.189Z,14.80
2022-10-05T00:32:05.975Z,14.80
2022-10-05T00:32:17.801Z,14.80
2022-10-05T00:32:29.520Z,14.80
2022-10-05T00:32:41.414Z,14.80
2022-10-05T00:32:58.668Z,14.80
2022-10-05T00:33:11.276Z,14.80
2022-10-05T00:33:23.190Z,14.80
2022-10-05T00:33:36.435Z,14.80
2022-10-05T00:33:48.496Z,14.80
2022-10-05T00:34:00.138Z,14.80
2022-10-05T00:34:11.966Z,14.80
2022-10-05T00:34:23.602Z,14.80
2022-10-05T00:34:35.399Z,14.80
2022-10-05T00:34:47.089Z,14.80
2022-10-05T00:34:58.758Z,14.80
2022-10-05T00:35:11.042Z,14.80
2022-10-05T00:35:22.818Z,14.80
2022-10-05T00:35:35.794Z,14.80
2022-10-05T00:35:47.527Z,14.80
2022-10-05T00:35:59.148Z,14.80
2022-10-05T00:36:11.039Z,14.80
2022-10-05T00:36:22.883Z,14.80
2022-10-05T00:36:34.529Z,14.80
2022-10-05T00:36:46.801Z,14.80
2022-10-05T00:36:58.825Z,14.80
2022-10-05T00:37:10.661Z,14.80
2022-10-05T00:37:22.315Z,14.80
2022-10-05T00:37:33.990Z,14.80
2022-10-05T00:37:45.934Z,14.80
2022-10-05T00:37:57.538Z,14.80
2022-10-05T00:38:09.315Z,14.80
2022-10-05T00:38:21.163Z,14.80
2022-10-05T00:38:32.987Z,14.70
2022-10-05T00:38:44.629Z,14.70
2022-10-05T00:38:56.405Z,14.70
2022-10-05T00:39:08.101Z,14.70
2022-10-05T00:39:19.955Z,14.70
2022-10-05T00:39:32.301Z,14.70
2022-10-05T00:39:44.175Z,14.70
2022-10-05T00:39:55.975Z,14.70
2022-10-05T00:40:42.244Z,14.70
2022-10-05T00:41:00.980Z,14.70
2022-10-05T00:41:23.736Z,14.70
2022-10-05T00:41:54.381Z,14.70
2022-10-05T00:42:33.459Z,14.70
2022-10-05T00:43:14.846Z,14.70
2022-10-05T00:43:45.335Z,14.70
2022-10-05T00:44:11.508Z,14.60
2022-10-05T00:44:28.825Z,14.60
2022-10-05T00:44:59.479Z,14.60
2022-10-05T00:45:16.383Z,14.60
2022-10-05T00:45:31.236Z,14.60
2022-10-05T00:45:46.068Z,14.60
2022-10-05T00:46:08.017Z,14.60
2022-10-05T00:46:41.872Z,14.60
2022-10-05T00:47:17.962Z,14.60
2022-10-05T00:47:36.623Z,14.60
2022-10-05T00:47:55.657Z,14.70
2022-10-05T00:48:48.790Z,14.60
2022-10-05T00:49:25.273Z,14.60
2022-10-05T00:49:52.070Z,14.60
2022-10-05T00:50:30.353Z,14.60
2022-10-05T00:51:00.668Z,14.60
2022-10-05T00:51:25.795Z,14.60
2022-10-05T00:51:37.955Z,14.60
2022-10-05T00:51:56.040Z,14.60
2022-10-05T00:52:39.721Z,14.60
2022-10-05T00:53:06.017Z,14.60
2022-10-05T00:53:47.833Z,14.50
2022-10-05T00:54:42.061Z,14.50
2022-10-05T00:54:56.383Z,14.50
2022-10-05T00:55:08.157Z,14.50
2022-10-05T00:55:44.401Z,14.40
2022-10-05T00:56:11.858Z,14.50
2022-10-05T00:56:47.401Z,14.40
2022-10-05T00:57:08.110Z,14.40
2022-10-05T00:57:39.432Z,14.40
2022-10-05T00:58:04.148Z,14.40
2022-10-05T00:58:30.644Z,14.40
2022-10-05T00:58:55.852Z,14.40
2022-10-05T00:59:28.816Z,14.40
2022-10-05T00:59:49.141Z,14.40
2022-10-05T01:00:07.971Z,14.40
2022-10-05T01:00:20.304Z,14.50
2022-10-05T01:00:32.097Z,14.50
2022-10-05T01:00:54.070Z,14.40
2022-10-05T01:01:21.350Z,14.40
2022-10-05T01:01:54.331Z,14.50
2022-10-05T01:02:26.925Z,14.50
2022-10-05T01:02:48.535Z,14.40
2022-10-05T01:03:07.389Z,14.40
2022-10-05T01:03:29.323Z,14.40
2022-10-05T01:03:59.156Z,14.40
2022-10-05T01:04:20.227Z,14.40
2022-10-05T01:04:36.706Z,14.40
2022-10-05T01:04:55.970Z,14.30
2022-10-05T01:05:24.406Z,14.30
2022-10-05T01:05:58.372Z,14.30
2022-10-05T01:07:04.443Z,14.30
2022-10-05T01:07:27.752Z,14.30
2022-10-05T01:08:06.065Z,14.20
2022-10-05T01:08:26.323Z,14.30
2022-10-05T01:08:47.878Z,14.20
2022-10-05T01:09:31.460Z,14.20
2022-10-05T01:09:53.308Z,14.20
2022-10-05T01:10:13.886Z,14.20
2022-10-05T01:10:34.116Z,14.20
2022-10-05T01:10:50.087Z,14.20
2022-10-05T01:11:24.624Z,14.20
2022-10-05T01:11:48.307Z,14.20
2022-10-05T01:12:31.972Z,14.20
2022-10-05T01:13:27.875Z,14.20
2022-10-05T01:14:01.329Z,14.20
2022-10-05T01:14:44.671Z,14.20
2022-10-05T01:15:10.118Z,14.20
2022-10-05T01:15:31.150Z,14.20
2022-10-05T01:15:51.769Z,14.10
2022-10-05T01:16:08.425Z,14.10
2022-10-05T01:16:49.855Z,14.10
2022-10-05T01:17:05.848Z,14.20
2022-10-05T01:17:25.965Z,14.10
2022-10-05T01:17:48.538Z,14.10
2022-10-05T01:18:18.820Z,14.10
2022-10-05T01:18:48.857Z,14.10
2022-10-05T01:19:27.923Z,14.10
2022-10-05T01:20:06.768Z,14.10
2022-10-05T01:20:43.107Z,14.10
2022-10-05T01:21:26.072Z,14.10
2022-10-05T01:21:42.984Z,14.10
2022-10-05T01:21:59.256Z,14.10
2022-10-05T01:36:45.010Z,14.10
2022-10-05T01:36:59.113Z,14.10
2022-10-05T01:37:27.410Z,14.10
2022-10-05T01:37:39.015Z,14.10
2022-10-05T01:38:08.967Z,14.10
2022-10-05T01:38:28.493Z,14.10
2022-10-05T01:38:54.444Z,14.10
2022-10-05T01:39:13.649Z,14.10
2022-10-05T01:39:41.577Z,14.10
2022-10-05T01:40:14.975Z,14.10
2022-10-05T01:40:51.104Z,14.10
2022-10-05T01:41:12.833Z,14.10
2022-10-05T01:41:44.916Z,14.10
2022-10-05T01:42:14.874Z,14.10
2022-10-05T01:42:29.138Z,14.10
2022-10-05T01:43:10.722Z,14.10
2022-10-05T01:43:38.865Z,14.10
2022-10-05T01:43:56.664Z,14.20
2022-10-05T01:44:16.505Z,14.10
2022-10-05T01:44:33.328Z,14.10
2022-10-05T01:45:01.384Z,14.10
2022-10-05T01:45:59.970Z,14.10
2022-10-05T01:46:30.415Z,14.10
2022-10-05T01:46:45.392Z,14.10
2022-10-05T01:47:14.055Z,14.10
2022-10-05T01:47:43.528Z,14.10
2022-10-05T01:48:00.813Z,14.10
2022-10-05T01:48:56.580Z,14.10
2022-10-05T01:49:23.787Z,14.10
2022-10-05T01:49:57.865Z,14.10
2022-10-05T01:50:34.495Z,14.10
2022-10-05T01:51:12.511Z,14.10
2022-10-05T01:51:39.322Z,14.10
2022-10-05T01:52:21.124Z,14.10
2022-10-05T01:52:47.608Z,14.00
2022-10-05T01:53:13.012Z,14.00
2022-10-05T01:53:40.216Z,14.00
2022-10-05T01:54:33.754Z,14.00
2022-10-05T01:54:54.705Z,14.00
2022-10-05T01:55:45.022Z,14.00
2022-10-05T01:56:03.609Z,14.00
2022-10-05T01:56:30.463Z,14.10
2022-10-05T01:57:19.308Z,14.00
2022-10-05T01:57:58.659Z,14.00
2022-10-05T01:58:34.877Z,14.00
2022-10-05T01:59:25.035Z,14.00
2022-10-05T02:00:00.761Z,14.00
2022-10-05T02:00:14.677Z,14.00
2022-10-05T02:00:26.309Z,14.10
2022-10-05T02:00:49.766Z,14.00
2022-10-05T02:01:10.246Z,14.00
2022-10-05T02:01:34.489Z,14.10
2022-10-05T02:02:02.221Z,14.00
2022-10-05T02:02:16.542Z,14.10
2022-10-05T02:02:28.976Z,14.00
2022-10-05T02:03:08.054Z,14.00
2022-10-05T02:03:25.532Z,14.10
2022-10-05T02:03:40.004Z,14.10
2022-10-05T02:03:55.762Z,14.00
2022-10-05T02:04:56.915Z,14.10
2022-10-05T02:05:03.649Z,14.00
2022-10-05T02:05:21.606Z,14.00
2022-10-05T02:05:46.861Z,14.00
2022-10-05T02:06:04.727Z,14.00
2022-10-05T02:06:22.334Z,14.00
2022-10-05T02:06:38.715Z,14.00
2022-10-05T02:06:50.472Z,14.00
2022-10-05T02:07:02.588Z,14.00
2022-10-05T02:07:21.223Z,14.00
2022-10-05T02:07:39.074Z,13.90
2022-10-05T02:08:08.264Z,13.90
2022-10-05T02:08:30.685Z,13.90
2022-10-05T02:08:57.004Z,13.90
2022-10-05T02:09:15.332Z,13.90
2022-10-05T02:09:28.808Z,13.90
2022-10-05T02:09:49.023Z,13.90
2022-10-05T02:10:25.195Z,13.90
2022-10-05T02:10:38.627Z,13.90
2022-10-05T02:10:58.564Z,13.90
2022-10-05T02:11:13.327Z,13.90
2022-10-05T02:11:25.260Z,13.90
2022-10-05T02:11:36.925Z,13.90
2022-10-05T02:11:52.556Z,13.90
2022-10-05T02:12:11.033Z,13.90
2022-10-05T02:12:23.878Z,13.90
2022-10-05T02:12:37.353Z,13.90
2022-10-05T02:12:49.946Z,13.90
2022-10-05T02:13:15.519Z,13.90
2022-10-05T02:13:49.060Z,13.90
2022-10-05T02:14:03.301Z,13.80
2022-10-05T02:14:24.411Z,13.90
2022-10-05T02:14:43.572Z,13.80
2022-10-05T02:14:57.372Z,13.90
2022-10-05T02:15:14.494Z,13.90
2022-10-05T02:15:29.260Z,13.90
2022-10-05T02:15:46.834Z,13.80
2022-10-05T02:16:00.909Z,13.90
2022-10-05T02:16:21.527Z,13.80
2022-10-05T02:16:43.043Z,13.80
2022-10-05T02:16:54.887Z,13.80
2022-10-05T02:17:25.833Z,13.80
2022-10-05T02:17:40.320Z,13.80
2022-10-05T02:17:55.759Z,13.80
2022-10-05T02:18:11.047Z,13.80
2022-10-05T02:18:30.691Z,13.80
2022-10-05T02:18:48.260Z,13.80
2022-10-05T02:19:04.690Z,13.80
2022-10-05T02:19:39.636Z,13.80
2022-10-05T02:19:53.132Z,13.80
2022-10-05T02:20:10.218Z,13.80
2022-10-05T02:20:25.156Z,13.80
2022-10-05T02:20:37.385Z,13.70
2022-10-05T02:20:49.027Z,13.70
2022-10-05T02:21:00.682Z,13.70
2022-10-05T02:21:12.344Z,13.80
2022-10-05T02:21:24.085Z,13.80
2022-10-05T02:21:35.930Z,13.80
2022-10-05T02:21:51.391Z,13.80
2022-10-05T02:22:08.056Z,13.80
2022-10-05T02:22:29.937Z,13.80
2022-10-05T02:22:47.273Z,13.80
2022-10-05T02:23:02.491Z,13.70
2022-10-05T02:23:22.371Z,13.70
2022-10-05T02:23:36.781Z,13.70
2022-10-05T02:23:49.427Z,13.70
2022-10-05T02:24:03.861Z,13.70
2022-10-05T02:25:02.055Z,13.70
2022-10-05T02:25:16.164Z,13.70
2022-10-05T02:25:30.714Z,13.70
2022-10-05T02:25:43.593Z,13.70
2022-10-05T02:25:55.192Z,13.70
2022-10-05T02:26:07.019Z,13.70
2022-10-05T02:26:18.861Z,13.70
2022-10-05T02:26:30.656Z,13.70
2022-10-05T02:26:42.295Z,13.70
2022-10-05T02:26:54.076Z,13.70
2022-10-05T02:27:05.773Z,13.70
2022-10-05T02:27:23.892Z,13.70
2022-10-05T02:27:38.238Z,13.70
2022-10-05T02:27:52.229Z,13.70
2022-10-05T02:28:21.945Z,13.60
2022-10-05T02:28:37.302Z,13.60
2022-10-05T02:29:06.467Z,13.60
2022-10-05T02:29:18.639Z,13.60
2022-10-05T02:29:30.993Z,13.60
2022-10-05T02:29:43.018Z,13.60
2022-10-05T02:29:56.716Z,13.60
2022-10-05T02:30:12.833Z,13.60
2022-10-05T02:30:27.833Z,13.60
2022-10-05T02:30:56.404Z,13.60
2022-10-05T02:31:19.921Z,13.60
2022-10-05T02:31:52.097Z,13.60
2022-10-05T02:32:05.731Z,13.60
2022-10-05T02:32:21.165Z,13.60
2022-10-05T02:32:37.390Z,13.60
2022-10-05T02:33:15.474Z,13.50
2022-10-05T02:33:28.757Z,13.50
2022-10-05T02:33:40.615Z,13.50
2022-10-05T02:33:52.408Z,13.50
2022-10-05T02:34:40.547Z,13.50
2022-10-05T02:34:52.226Z,13.50
2022-10-05T02:35:07.619Z,13.50
2022-10-05T02:35:19.420Z,13.50
2022-10-05T02:35:31.162Z,13.50
2022-10-05T02:35:42.803Z,13.50
2022-10-05T02:35:55.158Z,13.50
2022-10-05T02:36:45.961Z,13.50
2022-10-05T02:37:17.739Z,13.50
2022-10-05T02:37:38.612Z,13.60
2022-10-05T02:38:20.212Z,13.50
2022-10-05T02:38:44.189Z,13.50
2022-10-05T02:39:10.706Z,13.50
2022-10-05T02:39:29.616Z,13.50
2022-10-05T02:39:47.755Z,13.50
2022-10-05T02:40:31.580Z,13.50
2022-10-05T02:40:46.759Z,13.50
2022-10-05T02:41:33.675Z,13.50
2022-10-05T02:42:03.256Z,13.50
2022-10-05T02:42:16.835Z,13.40
2022-10-05T02:42:33.048Z,13.40
2022-10-05T02:42:56.931Z,13.40
2022-10-05T02:43:14.444Z,13.40
2022-10-05T02:43:44.377Z,13.40
2022-10-05T02:44:18.882Z,13.40
2022-10-05T02:44:33.472Z,13.40
2022-10-05T02:45:03.780Z,13.40
2022-10-05T02:45:35.447Z,13.40
2022-10-05T02:45:49.993Z,13.40
2022-10-05T02:46:17.535Z,13.30
2022-10-05T02:46:35.399Z,13.30
2022-10-05T02:47:08.602Z,13.30
2022-10-05T02:47:33.760Z,13.30
2022-10-05T02:48:15.649Z,13.30
2022-10-05T02:48:53.969Z,13.30
2022-10-05T02:49:33.202Z,13.30
2022-10-05T02:49:54.440Z,13.30
2022-10-05T02:50:15.184Z,13.30
2022-10-05T02:50:33.212Z,13.30
2022-10-05T02:50:57.063Z,13.30
2022-10-05T02:51:26.255Z,13.30
2022-10-05T02:51:41.263Z,13.30
2022-10-05T02:52:05.051Z,13.30
2022-10-05T02:52:22.018Z,13.30
2022-10-05T02:52:55.615Z,13.30
2022-10-05T02:53:15.712Z,13.30
2022-10-05T02:53:45.373Z,13.30
2022-10-05T02:54:02.931Z,13.30
2022-10-05T02:54:16.420Z,13.30
2022-10-05T02:55:03.719Z,13.30
2022-10-05T02:55:19.555Z,13.30
2022-10-05T02:55:40.116Z,13.30
2022-10-05T02:56:24.310Z,13.30
2022-10-05T02:56:50.694Z,13.30
2022-10-05T02:58:00.250Z,13.30
2022-10-05T02:58:13.126Z,13.30
2022-10-05T02:58:27.378Z,13.30
2022-10-05T02:58:45.361Z,13.30
2022-10-05T02:59:35.548Z,13.30
2022-10-05T03:00:37.241Z,13.30
2022-10-05T03:01:00.127Z,13.30
2022-10-05T03:01:14.951Z,13.30
2022-10-05T03:01:36.439Z,13.30
2022-10-05T03:01:53.016Z,13.30
2022-10-05T03:02:12.592Z,13.30
2022-10-05T03:02:40.457Z,13.30
2022-10-05T03:03:06.452Z,13.30
2022-10-05T03:03:28.008Z,13.30
2022-10-05T03:03:43.269Z,13.30
2022-10-05T03:04:07.675Z,13.30
2022-10-05T03:04:27.798Z,13.30
2022-10-05T03:05:10.040Z,13.30
2022-10-05T03:05:37.569Z,13.30
2022-10-05T03:06:09.022Z,13.30
2022-10-05T03:06:22.692Z,13.30
2022-10-05T03:07:13.588Z,13.30
2022-10-05T03:07:34.270Z,13.20
2022-10-05T03:07:50.760Z,13.30
2022-10-05T03:08:13.299Z,13.20
2022-10-05T03:08:42.629Z,13.30
2022-10-05T03:09:03.738Z,13.20
2022-10-05T03:09:16.303Z,13.20
2022-10-05T03:09:29.807Z,13.20
2022-10-05T03:09:45.525Z,13.20
2022-10-05T03:10:05.097Z,13.20
2022-10-05T03:10:35.724Z,13.20
2022-10-05T03:11:24.770Z,13.20
2022-10-05T03:12:00.760Z,13.20
2022-10-05T03:12:16.356Z,13.10
2022-10-05T03:12:53.476Z,13.10
2022-10-05T03:13:07.708Z,13.10
2022-10-05T03:14:00.177Z,13.10
2022-10-05T03:14:33.319Z,13.20
2022-10-05T03:14:53.667Z,13.20
2022-10-05T03:15:20.443Z,13.10
2022-10-05T03:15:58.324Z,13.10
2022-10-05T03:16:20.667Z,13.10
2022-10-05T03:16:38.306Z,13.10
2022-10-05T03:17:13.580Z,13.10
2022-10-05T03:17:27.628Z,13.10
2022-10-05T03:17:49.927Z,13.10
2022-10-05T03:18:17.864Z,13.10
2022-10-05T03:19:09.883Z,13.10
2022-10-05T03:19:39.258Z,13.10
2022-10-05T03:20:24.340Z,13.10
2022-10-05T03:20:45.571Z,13.00
2022-10-05T03:21:29.775Z,13.10
2022-10-05T03:21:47.316Z,13.00
2022-10-05T03:22:15.228Z,13.10
2022-10-05T03:22:58.736Z,13.10
2022-10-05T03:23:16.549Z,13.10
2022-10-05T03:24:35.896Z,13.00
2022-10-05T03:25:10.572Z,13.00
2022-10-05T03:25:36.754Z,13.00
2022-10-05T03:25:54.364Z,13.00
2022-10-05T03:26:13.199Z,13.00
2022-10-05T03:26:34.409Z,13.00
2022-10-05T03:27:01.093Z,13.00
2022-10-05T03:27:28.858Z,13.00
2022-10-05T03:27:50.108Z,13.00
2022-10-05T03:28:05.034Z,13.00
2022-10-05T03:28:47.540Z,13.00
2022-10-05T03:29:01.948Z,13.00
2022-10-05T03:29:24.101Z,12.90
2022-10-05T03:29:42.397Z,12.90
2022-10-05T03:30:06.058Z,12.90
2022-10-05T03:30:26.838Z,12.90
2022-10-05T03:31:05.246Z,13.00
2022-10-05T03:31:49.121Z,13.00
2022-10-05T03:32:07.399Z,12.90
2022-10-05T03:32:19.045Z,12.90
2022-10-05T03:32:34.519Z,12.90
2022-10-05T03:33:09.534Z,12.90
2022-10-05T03:33:45.892Z,12.90
2022-10-05T03:34:01.420Z,12.90
2022-10-05T03:34:16.968Z,12.90
2022-10-05T03:34:45.837Z,12.90
2022-10-05T03:35:10.655Z,12.90
2022-10-05T03:35:31.835Z,12.90
2022-10-05T03:36:10.948Z,12.90
2022-10-05T03:36:33.136Z,12.90
2022-10-05T03:37:00.884Z,12.90
2022-10-05T03:37:30.783Z,12.90
2022-10-05T03:37:50.060Z,12.90
2022-10-05T03:38:06.862Z,12.90
2022-10-05T03:38:43.433Z,12.90
2022-10-05T03:39:07.997Z,12.90
2022-10-05T03:39:28.127Z,12.90
2022-10-05T03:39:43.560Z,12.90
2022-10-05T03:40:03.160Z,12.90
2022-10-05T03:50:22.673Z,12.90
2022-10-05T03:50:37.037Z,12.80
2022-10-05T03:51:08.043Z,12.90
2022-10-05T03:51:24.328Z,12.80
2022-10-05T03:51:38.374Z,12.80
2022-10-05T03:51:54.379Z,12.80
2022-10-05T03:52:10.449Z,12.90
2022-10-05T03:52:23.497Z,12.90
2022-10-05T03:52:38.662Z,12.90
2022-10-05T03:52:52.600Z,12.80
2022-10-05T03:53:06.260Z,12.80
2022-10-05T03:53:22.291Z,12.90
2022-10-05T03:53:47.933Z,12.80
2022-10-05T03:54:25.068Z,12.80
2022-10-05T03:54:39.603Z,12.80
2022-10-05T03:55:03.582Z,12.80
2022-10-05T03:55:42.576Z,12.80
2022-10-05T03:56:10.640Z,12.80
2022-10-05T03:56:43.802Z,12.80
2022-10-05T03:56:57.431Z,12.80
2022-10-05T03:57:14.782Z,12.80
2022-10-05T03:57:28.405Z,12.80
2022-10-05T03:57:40.276Z,12.80
2022-10-05T03:57:52.468Z,12.80
2022-10-05T03:58:07.735Z,12.80
2022-10-05T03:58:33.223Z,12.80
2022-10-05T03:59:01.719Z,12.80
2022-10-05T03:59:46.493Z,12.70
2022-10-05T04:00:09.239Z,12.80
2022-10-05T04:00:24.272Z,12.70
2022-10-05T04:00:36.072Z,12.70
2022-10-05T04:00:50.020Z,12.70
2022-10-05T04:01:07.581Z,12.70
2022-10-05T04:01:22.212Z,12.70
2022-10-05T04:01:45.477Z,12.70
2022-10-05T04:01:59.292Z,12.70
2022-10-05T04:02:26.348Z,12.70
2022-10-05T04:03:24.805Z,12.70
2022-10-05T04:03:39.589Z,12.70
2022-10-05T04:03:57.222Z,12.70
2022-10-05T04:04:12.249Z,12.70
2022-10-05T04:04:33.975Z,12.70
2022-10-05T04:04:51.087Z,12.70
2022-10-05T04:05:12.433Z,12.70
2022-10-05T04:05:25.784Z,12.70
2022-10-05T04:06:05.073Z,12.70
2022-10-05T04:06:24.895Z,12.70
2022-10-05T04:06:41.208Z,12.70
2022-10-05T04:06:53.085Z,12.70
2022-10-05T04:07:04.692Z,12.70
2022-10-05T04:07:30.714Z,12.70
2022-10-05T04:08:08.827Z,12.60
2022-10-05T04:08:21.769Z,12.70
2022-10-05T04:08:40.605Z,12.70
2022-10-05T04:08:59.367Z,12.60
2022-10-05T04:09:32.320Z,12.60
2022-10-05T04:09:44.493Z,12.60
2022-10-05T04:09:56.308Z,12.60
2022-10-05T04:10:13.332Z,12.60
2022-10-05T04:10:29.962Z,12.60
2022-10-05T04:10:44.031Z,12.60
2022-10-05T04:10:56.938Z,12.60
2022-10-05T04:11:14.501Z,12.60
2022-10-05T04:11:35.306Z,12.60
2022-10-05T04:11:49.905Z,12.60
2022-10-05T04:12:23.158Z,12.60
2022-10-05T04:12:40.454Z,12.60
2022-10-05T04:13:13.210Z,12.60
2022-10-05T04:13:33.719Z,12.60
2022-10-05T04:13:56.157Z,12.60
2022-10-05T04:14:13.635Z,12.60
2022-10-05T04:14:32.221Z,12.60
2022-10-05T04:14:48.500Z,12.60
2022-10-05T04:15:08.373Z,12.60
2022-10-05T04:15:29.955Z,12.50
2022-10-05T04:15:44.874Z,12.60
2022-10-05T04:16:00.942Z,12.50
2022-10-05T04:16:20.035Z,12.50
2022-10-05T04:16:52.492Z,12.60
2022-10-05T04:17:12.406Z,12.60
2022-10-05T04:17:36.197Z,12.60
2022-10-05T04:17:50.926Z,12.60
2022-10-05T04:18:19.204Z,12.50
2022-10-05T04:18:51.248Z,12.60
2022-10-05T04:19:09.251Z,12.60
2022-10-05T04:19:32.181Z,12.60
2022-10-05T04:19:45.785Z,12.60
2022-10-05T04:20:06.151Z,12.60
2022-10-05T04:20:20.247Z,12.50
2022-10-05T04:20:37.659Z,12.60
2022-10-05T04:20:52.291Z,12.60
2022-10-05T04:21:25.591Z,12.60
2022-10-05T04:21:40.856Z,12.60
2022-10-05T04:22:10.140Z,12.50
2022-10-05T04:22:39.297Z,12.50
2022-10-05T04:23:02.572Z,12.50
2022-10-05T04:23:28.048Z,12.50
2022-10-05T04:23:53.744Z,12.50
2022-10-05T04:24:20.157Z,12.50
2022-10-05T04:24:41.997Z,12.50
2022-10-05T04:25:02.045Z,12.50
2022-10-05T04:25:37.184Z,12.50
2022-10-05T04:25:50.802Z,12.50
2022-10-05T04:26:10.849Z,12.50
2022-10-05T04:26:30.097Z,12.50
2022-10-05T04:26:59.365Z,12.50
2022-10-05T04:27:19.624Z,12.50
2022-10-05T04:27:42.438Z,12.50
2022-10-05T04:28:02.624Z,12.50
2022-10-05T04:28:18.387Z,12.50
2022-10-05T04:28:56.422Z,12.50
2022-10-05T04:29:31.423Z,12.50
2022-10-05T04:30:05.135Z,12.50
2022-10-05T04:30:19.625Z,12.50
2022-10-05T04:30:31.892Z,12.50
2022-10-05T04:30:45.258Z,12.50
2022-10-05T04:30:57.083Z,12.40
2022-10-05T04:31:11.903Z,12.40
2022-10-05T04:31:42.812Z,12.40
2022-10-05T04:32:47.556Z,12.50
2022-10-05T04:32:59.567Z,12.50
2022-10-05T04:33:15.060Z,12.50
2022-10-05T04:33:26.866Z,12.50
2022-10-05T04:33:38.639Z,12.50
2022-10-05T04:33:55.611Z,12.50
2022-10-05T04:34:35.254Z,12.50
2022-10-05T04:35:31.194Z,12.50
2022-10-05T04:36:03.960Z,12.50
2022-10-05T04:36:22.401Z,12.50
2022-10-05T04:36:36.391Z,12.50
2022-10-05T04:36:54.995Z,12.40
2022-10-05T04:37:08.577Z,12.40
2022-10-05T04:37:42.085Z,12.40
2022-10-05T04:38:26.511Z,12.50
2022-10-05T04:38:44.827Z,12.50
2022-10-05T04:39:19.766Z,12.50
2022-10-05T04:40:02.320Z,12.50
2022-10-05T04:40:22.934Z,12.50
2022-10-05T04:40:52.315Z,12.50
2022-10-05T04:41:34.676Z,12.50
2022-10-05T04:42:13.213Z,12.50
2022-10-05T04:42:46.480Z,12.50
2022-10-05T04:43:47.520Z,12.40
2022-10-05T04:44:01.954Z,12.40
2022-10-05T04:44:59.387Z,12.50
2022-10-05T04:45:49.212Z,12.40
2022-10-05T04:46:38.875Z,12.40
2022-10-05T04:47:07.763Z,12.40
2022-10-05T04:47:53.833Z,12.40
2022-10-05T04:48:16.109Z,12.40
2022-10-05T04:48:46.884Z,12.40
2022-10-05T04:49:17.781Z,12.40
2022-10-05T04:49:44.523Z,12.40
2022-10-05T04:49:58.695Z,12.30
2022-10-05T04:50:32.425Z,12.30
2022-10-05T04:51:05.604Z,12.30
2022-10-05T04:51:38.471Z,12.30
2022-10-05T04:52:27.667Z,12.30
2022-10-05T04:53:10.361Z,12.30
2022-10-05T04:53:30.256Z,12.30
2022-10-05T04:53:59.155Z,12.30
2022-10-05T04:54:31.723Z,12.30
2022-10-05T04:55:04.660Z,12.30
2022-10-05T04:55:51.323Z,12.30
2022-10-05T04:56:08.309Z,12.30
2022-10-05T04:56:30.057Z,12.30
2022-10-05T04:56:43.600Z,12.30
2022-10-05T04:56:58.454Z,12.30
2022-10-05T04:57:16.012Z,12.30
2022-10-05T04:57:31.785Z,12.30
2022-10-05T04:57:46.098Z,12.30
2022-10-05T04:58:02.285Z,12.30
2022-10-05T04:58:26.047Z,12.30
2022-10-05T04:58:59.649Z,12.30
2022-10-05T04:59:48.772Z,12.30
2022-10-05T05:00:23.864Z,12.30
2022-10-05T05:01:12.645Z,12.30
2022-10-05T05:01:45.225Z,12.30
2022-10-05T05:02:18.151Z,12.30
2022-10-05T05:02:32.686Z,12.30
2022-10-05T05:02:49.911Z,12.30
2022-10-05T05:03:31.657Z,12.30
2022-10-05T05:04:12.089Z,12.20
2022-10-05T05:04:51.502Z,12.30
2022-10-05T05:05:15.536Z,12.30
2022-10-05T05:05:33.234Z,12.30
2022-10-05T05:06:15.965Z,12.30
2022-10-05T05:06:48.173Z,12.30
2022-10-05T05:07:10.524Z,12.30
2022-10-05T05:07:31.103Z,12.30
2022-10-05T05:07:48.422Z,12.30
2022-10-05T05:08:25.794Z,12.30
2022-10-05T05:09:11.268Z,12.30
2022-10-05T05:11:45.553Z,12.20
2022-10-05T05:12:25.685Z,12.20
2022-10-05T05:13:14.047Z,12.20
2022-10-05T05:23:07.043Z,12.30
2022-10-05T05:23:27.821Z,12.30
2022-10-05T05:23:49.133Z,12.30
2022-10-05T05:24:18.303Z,12.30
2022-10-05T05:24:39.127Z,12.30
2022-10-05T05:25:24.740Z,12.30
2022-10-05T05:25:54.412Z,12.30
2022-10-05T05:26:17.197Z,12.30
2022-10-05T05:26:38.878Z,12.30
2022-10-05T05:27:21.166Z,12.30
2022-10-05T05:27:38.935Z,12.30
2022-10-05T05:28:32.048Z,12.40
2022-10-05T05:29:01.991Z,12.30
2022-10-05T05:29:25.820Z,12.30
2022-10-05T05:29:52.354Z,12.30
2022-10-05T05:30:25.716Z,12.30